sensor_id;sensor_type;location;lat;lon;timestamp;temperature;humidity
70676;DHT22;59069;52.242;20.900;2022-12-07T00:03:35;2.23;89.02
70676;DHT22;59069;52.242;20.900;2022-12-07T00:06:02;2.26;88.94
70676;DHT22;59069;52.242;20.900;2022-12-07T00:08:29;2.29;88.90
70676;DHT22;59069;52.242;20.900;2022-12-07T00:11:01;2.33;88.85
70676;DHT22;59069;52.242;20.900;2022-12-07T00:13:27;2.33;88.76
70676;DHT22;59069;52.242;20.900;2022-12-07T00:15:52;2.34;88.87
70676;DHT22;59069;52.242;20.900;2022-12-07T00:18:18;2.34;88.96
70676;DHT22;59069;52.242;20.900;2022-12-07T00:20:43;2.34;89.06
70676;DHT22;59069;52.242;20.900;2022-12-07T00:23:08;2.38;89.04
70676;DHT22;59069;52.242;20.900;2022-12-07T00:25:34;2.43;88.91
70676;DHT22;59069;52.242;20.900;2022-12-07T00:27:59;2.44;88.89
70676;DHT22;59069;52.242;20.900;2022-12-07T00:30:25;2.47;88.94
70676;DHT22;59069;52.242;20.900;2022-12-07T00:32:50;2.48;88.96
70676;DHT22;59069;52.242;20.900;2022-12-07T00:35:16;2.48;89.02
70676;DHT22;59069;52.242;20.900;2022-12-07T00:37:41;2.47;89.08
70676;DHT22;59069;52.242;20.900;2022-12-07T00:40:07;2.51;89.15
70676;DHT22;59069;52.242;20.900;2022-12-07T00:42:33;2.48;89.28
70676;DHT22;59069;52.242;20.900;2022-12-07T00:44:58;2.51;89.30
70676;DHT22;59069;52.242;20.900;2022-12-07T00:47:24;2.53;89.34
70676;DHT22;59069;52.242;20.900;2022-12-07T00:49:49;2.51;89.35
70676;DHT22;59069;52.242;20.900;2022-12-07T00:52:14;2.51;89.38
70676;DHT22;59069;52.242;20.900;2022-12-07T00:54:40;2.50;89.48
70676;DHT22;59069;52.242;20.900;2022-12-07T00:57:06;2.48;89.63
70676;DHT22;59069;52.242;20.900;2022-12-07T00:59:31;2.47;89.76
70676;DHT22;59069;52.242;20.900;2022-12-07T01:01:56;2.44;89.84
70676;DHT22;59069;52.242;20.900;2022-12-07T01:04:22;2.43;89.92
70676;DHT22;59069;52.242;20.900;2022-12-07T01:06:47;2.41;90.06
70676;DHT22;59069;52.242;20.900;2022-12-07T01:09:13;2.43;90.16
70676;DHT22;59069;52.242;20.900;2022-12-07T01:11:38;2.44;90.32
70676;DHT22;59069;52.242;20.900;2022-12-07T01:14:04;2.40;90.42
70676;DHT22;59069;52.242;20.900;2022-12-07T01:16:31;2.41;90.50
70676;DHT22;59069;52.242;20.900;2022-12-07T01:18:58;2.44;90.61
70676;DHT22;59069;52.242;20.900;2022-12-07T01:21:26;2.43;90.74
70676;DHT22;59069;52.242;20.900;2022-12-07T01:23:53;2.43;90.89
70676;DHT22;59069;52.242;20.900;2022-12-07T01:26:21;2.45;90.96
70676;DHT22;59069;52.242;20.900;2022-12-07T01:28:47;2.47;91.10
70676;DHT22;59069;52.242;20.900;2022-12-07T01:31:17;2.51;91.20
70676;DHT22;59069;52.242;20.900;2022-12-07T01:33:47;2.54;91.19
70676;DHT22;59069;52.242;20.900;2022-12-07T01:36:21;2.55;91.17
70676;DHT22;59069;52.242;20.900;2022-12-07T01:38:48;2.58;91.14
70676;DHT22;59069;52.242;20.900;2022-12-07T01:41:17;2.60;91.13
70676;DHT22;59069;52.242;20.900;2022-12-07T01:44:09;2.60;91.18
70676;DHT22;59069;52.242;20.900;2022-12-07T01:46:35;2.60;91.18
70676;DHT22;59069;52.242;20.900;2022-12-07T01:49:01;2.60;91.14
70676;DHT22;59069;52.242;20.900;2022-12-07T01:51:28;2.60;91.06
70676;DHT22;59069;52.242;20.900;2022-12-07T01:53:53;2.61;91.08
70676;DHT22;59069;52.242;20.900;2022-12-07T01:56:22;2.62;91.02
70676;DHT22;59069;52.242;20.900;2022-12-07T01:58:49;2.61;91.04
70676;DHT22;59069;52.242;20.900;2022-12-07T02:01:15;2.60;91.10
70676;DHT22;59069;52.242;20.900;2022-12-07T02:03:43;2.60;91.15
70676;DHT22;59069;52.242;20.900;2022-12-07T02:06:11;2.62;91.26
70676;DHT22;59069;52.242;20.900;2022-12-07T02:08:37;2.64;91.28
70676;DHT22;59069;52.242;20.900;2022-12-07T02:11:04;2.65;91.30
70676;DHT22;59069;52.242;20.900;2022-12-07T02:13:32;2.65;91.35
70676;DHT22;59069;52.242;20.900;2022-12-07T02:24:14;2.74;91.28
70676;DHT22;59069;52.242;20.900;2022-12-07T02:29:44;2.72;91.15
70676;DHT22;59069;52.242;20.900;2022-12-07T02:34:56;2.68;91.15
70676;DHT22;59069;52.242;20.900;2022-12-07T02:42:35;2.70;91.04
70676;DHT22;59069;52.242;20.900;2022-12-07T02:45:02;2.66;90.93
70676;DHT22;59069;52.242;20.900;2022-12-07T02:47:29;2.65;90.93
70676;DHT22;59069;52.242;20.900;2022-12-07T02:49:56;2.64;91.04
70676;DHT22;59069;52.242;20.900;2022-12-07T02:52:22;2.60;91.04
70676;DHT22;59069;52.242;20.900;2022-12-07T02:54:47;2.62;91.06
70676;DHT22;59069;52.242;20.900;2022-12-07T03:13:28;2.55;90.80
70676;DHT22;59069;52.242;20.900;2022-12-07T03:18:25;2.55;90.91
70676;DHT22;59069;52.242;20.900;2022-12-07T03:20:53;2.55;90.85
70676;DHT22;59069;52.242;20.900;2022-12-07T03:23:21;2.55;90.93
70676;DHT22;59069;52.242;20.900;2022-12-07T03:25:50;2.57;90.96
70676;DHT22;59069;52.242;20.900;2022-12-07T03:28:20;2.60;91.04
70676;DHT22;59069;52.242;20.900;2022-12-07T03:30:57;2.61;91.00
70676;DHT22;59069;52.242;20.900;2022-12-07T03:33:36;2.60;90.89
70676;DHT22;59069;52.242;20.900;2022-12-07T03:36:17;2.57;90.81
70676;DHT22;59069;52.242;20.900;2022-12-07T03:38:52;2.58;90.68
70676;DHT22;59069;52.242;20.900;2022-12-07T03:41:30;2.51;90.65
70676;DHT22;59069;52.242;20.900;2022-12-07T03:43:57;2.45;90.60
70676;DHT22;59069;52.242;20.900;2022-12-07T03:46:32;2.43;90.63
70676;DHT22;59069;52.242;20.900;2022-12-07T03:52:08;2.37;90.74
70676;DHT22;59069;52.242;20.900;2022-12-07T03:55:05;2.36;90.72
70676;DHT22;59069;52.242;20.900;2022-12-07T03:57:33;2.34;90.72
70676;DHT22;59069;52.242;20.900;2022-12-07T03:59:58;2.33;90.59
70676;DHT22;59069;52.242;20.900;2022-12-07T04:02:27;2.29;90.58
70676;DHT22;59069;52.242;20.900;2022-12-07T04:04:54;2.26;90.68
70676;DHT22;59069;52.242;20.900;2022-12-07T04:07:19;2.24;90.75
70676;DHT22;59069;52.242;20.900;2022-12-07T04:09:45;2.24;90.76
70676;DHT22;59069;52.242;20.900;2022-12-07T04:12:10;2.21;90.69
70676;DHT22;59069;52.242;20.900;2022-12-07T04:14:36;2.20;90.69
70676;DHT22;59069;52.242;20.900;2022-12-07T04:17:01;2.20;90.79
70676;DHT22;59069;52.242;20.900;2022-12-07T04:19:32;2.19;90.76
70676;DHT22;59069;52.242;20.900;2022-12-07T04:22:00;2.17;90.79
70676;DHT22;59069;52.242;20.900;2022-12-07T04:24:26;2.14;90.80
70676;DHT22;59069;52.242;20.900;2022-12-07T04:26:52;2.13;90.81
70676;DHT22;59069;52.242;20.900;2022-12-07T04:29:18;2.13;90.94
70676;DHT22;59069;52.242;20.900;2022-12-07T04:31:44;2.07;91.00
70676;DHT22;59069;52.242;20.900;2022-12-07T04:34:10;2.10;91.07
70676;DHT22;59069;52.242;20.900;2022-12-07T04:36:36;2.07;91.09
70676;DHT22;59069;52.242;20.900;2022-12-07T04:39:02;2.07;91.05
70676;DHT22;59069;52.242;20.900;2022-12-07T04:41:28;2.06;91.02
70676;DHT22;59069;52.242;20.900;2022-12-07T04:44:00;2.09;91.02
70676;DHT22;59069;52.242;20.900;2022-12-07T04:46:27;2.06;91.07
70676;DHT22;59069;52.242;20.900;2022-12-07T04:48:53;2.05;91.09
70676;DHT22;59069;52.242;20.900;2022-12-07T04:51:27;2.05;91.01
70676;DHT22;59069;52.242;20.900;2022-12-07T04:53:54;2.03;91.12
70676;DHT22;59069;52.242;20.900;2022-12-07T04:56:19;2.06;91.07
70676;DHT22;59069;52.242;20.900;2022-12-07T04:58:47;2.05;91.00
70676;DHT22;59069;52.242;20.900;2022-12-07T05:01:13;2.05;91.13
70676;DHT22;59069;52.242;20.900;2022-12-07T05:03:39;2.05;91.02
70676;DHT22;59069;52.242;20.900;2022-12-07T05:06:05;2.05;90.93
70676;DHT22;59069;52.242;20.900;2022-12-07T05:08:32;2.07;90.83
70676;DHT22;59069;52.242;20.900;2022-12-07T05:10:57;2.06;90.81
70676;DHT22;59069;52.242;20.900;2022-12-07T05:13:23;2.03;90.71
70676;DHT22;59069;52.242;20.900;2022-12-07T05:15:48;2.02;90.67
70676;DHT22;59069;52.242;20.900;2022-12-07T05:18:14;2.02;90.76
70676;DHT22;59069;52.242;20.900;2022-12-07T05:20:40;2.02;90.77
70676;DHT22;59069;52.242;20.900;2022-12-07T05:23:06;1.99;90.80
70676;DHT22;59069;52.242;20.900;2022-12-07T05:25:31;2.00;90.83
70676;DHT22;59069;52.242;20.900;2022-12-07T05:27:57;2.02;90.82
70676;DHT22;59069;52.242;20.900;2022-12-07T05:30:24;2.00;90.84
70676;DHT22;59069;52.242;20.900;2022-12-07T05:32:50;2.03;90.75
70676;DHT22;59069;52.242;20.900;2022-12-07T05:35:16;2.03;90.57
70676;DHT22;59069;52.242;20.900;2022-12-07T05:37:42;2.02;90.62
70676;DHT22;59069;52.242;20.900;2022-12-07T05:40:08;2.05;90.48
70676;DHT22;59069;52.242;20.900;2022-12-07T05:42:34;2.06;90.48
70676;DHT22;59069;52.242;20.900;2022-12-07T05:45:00;2.02;90.43
70676;DHT22;59069;52.242;20.900;2022-12-07T05:47:25;2.00;90.41
70676;DHT22;59069;52.242;20.900;2022-12-07T05:49:51;2.00;90.49
70676;DHT22;59069;52.242;20.900;2022-12-07T05:52:16;1.99;90.55
70676;DHT22;59069;52.242;20.900;2022-12-07T05:54:42;1.98;90.44
70676;DHT22;59069;52.242;20.900;2022-12-07T05:57:08;1.96;90.41
70676;DHT22;59069;52.242;20.900;2022-12-07T05:59:33;1.98;90.45
70676;DHT22;59069;52.242;20.900;2022-12-07T06:02:00;1.93;90.53
70676;DHT22;59069;52.242;20.900;2022-12-07T06:04:28;1.99;90.45
70676;DHT22;59069;52.242;20.900;2022-12-07T06:06:54;1.95;90.41
70676;DHT22;59069;52.242;20.900;2022-12-07T06:09:21;1.95;90.41
70676;DHT22;59069;52.242;20.900;2022-12-07T06:11:47;1.90;90.26
70676;DHT22;59069;52.242;20.900;2022-12-07T06:14:31;1.93;90.33
70676;DHT22;59069;52.242;20.900;2022-12-07T06:16:58;1.92;90.38
70676;DHT22;59069;52.242;20.900;2022-12-07T06:19:24;1.89;90.39
70676;DHT22;59069;52.242;20.900;2022-12-07T06:21:49;1.89;90.37
70676;DHT22;59069;52.242;20.900;2022-12-07T06:24:16;1.92;90.31
70676;DHT22;59069;52.242;20.900;2022-12-07T06:26:41;1.89;90.23
70676;DHT22;59069;52.242;20.900;2022-12-07T06:29:07;1.87;90.22
70676;DHT22;59069;52.242;20.900;2022-12-07T06:31:33;1.86;90.23
70676;DHT22;59069;52.242;20.900;2022-12-07T06:34:00;1.86;90.35
70676;DHT22;59069;52.242;20.900;2022-12-07T06:36:26;1.86;90.30
70676;DHT22;59069;52.242;20.900;2022-12-07T06:38:52;1.87;90.29
70676;DHT22;59069;52.242;20.900;2022-12-07T06:41:17;1.86;90.31
70676;DHT22;59069;52.242;20.900;2022-12-07T06:43:43;1.83;90.35
70676;DHT22;59069;52.242;20.900;2022-12-07T06:46:08;1.87;90.35
70676;DHT22;59069;52.242;20.900;2022-12-07T06:48:34;1.86;90.28
70676;DHT22;59069;52.242;20.900;2022-12-07T06:50:59;1.85;90.23
70676;DHT22;59069;52.242;20.900;2022-12-07T06:53:25;1.83;90.35
70676;DHT22;59069;52.242;20.900;2022-12-07T06:55:50;1.85;90.36
70676;DHT22;59069;52.242;20.900;2022-12-07T06:58:16;1.80;90.36
70676;DHT22;59069;52.242;20.900;2022-12-07T07:00:42;1.80;90.35
70676;DHT22;59069;52.242;20.900;2022-12-07T07:03:07;1.80;90.37
70676;DHT22;59069;52.242;20.900;2022-12-07T07:05:33;1.73;90.43
70676;DHT22;59069;52.242;20.900;2022-12-07T07:07:58;1.75;90.48
70676;DHT22;59069;52.242;20.900;2022-12-07T07:10:24;1.75;90.54
70676;DHT22;59069;52.242;20.900;2022-12-07T07:12:49;1.72;90.48
70676;DHT22;59069;52.242;20.900;2022-12-07T07:15:15;1.72;90.60
70676;DHT22;59069;52.242;20.900;2022-12-07T07:17:40;1.72;90.73
70676;DHT22;59069;52.242;20.900;2022-12-07T07:20:06;1.71;90.71
70676;DHT22;59069;52.242;20.900;2022-12-07T07:22:32;1.71;90.81
70676;DHT22;59069;52.242;20.900;2022-12-07T07:24:57;1.69;90.77
70676;DHT22;59069;52.242;20.900;2022-12-07T07:27:23;1.71;90.83
70676;DHT22;59069;52.242;20.900;2022-12-07T07:29:48;1.69;90.78
70676;DHT22;59069;52.242;20.900;2022-12-07T07:32:14;1.69;90.90
70676;DHT22;59069;52.242;20.900;2022-12-07T07:34:39;1.69;90.98
70676;DHT22;59069;52.242;20.900;2022-12-07T07:37:05;1.69;90.97
70676;DHT22;59069;52.242;20.900;2022-12-07T07:39:30;1.72;90.94
70676;DHT22;59069;52.242;20.900;2022-12-07T07:41:56;1.69;90.92
70676;DHT22;59069;52.242;20.900;2022-12-07T07:44:21;1.68;90.98
70676;DHT22;59069;52.242;20.900;2022-12-07T07:46:46;1.71;91.09
70676;DHT22;59069;52.242;20.900;2022-12-07T07:49:12;1.68;91.06
70676;DHT22;59069;52.242;20.900;2022-12-07T07:51:37;1.65;91.13
70676;DHT22;59069;52.242;20.900;2022-12-07T07:54:03;1.65;91.14
70676;DHT22;59069;52.242;20.900;2022-12-07T07:56:29;1.69;91.24
70676;DHT22;59069;52.242;20.900;2022-12-07T07:58:55;1.69;91.32
70676;DHT22;59069;52.242;20.900;2022-12-07T08:01:20;1.69;91.43
70676;DHT22;59069;52.242;20.900;2022-12-07T08:03:46;1.69;91.47
70676;DHT22;59069;52.242;20.900;2022-12-07T08:06:12;1.68;91.52
70676;DHT22;59069;52.242;20.900;2022-12-07T08:08:37;1.68;91.63
70676;DHT22;59069;52.242;20.900;2022-12-07T08:11:08;1.66;91.75
70676;DHT22;59069;52.242;20.900;2022-12-07T08:13:34;1.69;91.92
70676;DHT22;59069;52.242;20.900;2022-12-07T08:16:07;1.69;92.07
70676;DHT22;59069;52.242;20.900;2022-12-07T08:18:38;1.71;92.10
70676;DHT22;59069;52.242;20.900;2022-12-07T08:21:05;1.69;92.29
70676;DHT22;59069;52.242;20.900;2022-12-07T08:23:31;1.72;92.37
70676;DHT22;59069;52.242;20.900;2022-12-07T08:26:05;1.73;92.39
70676;DHT22;59069;52.242;20.900;2022-12-07T08:28:31;1.76;92.39
70676;DHT22;59069;52.242;20.900;2022-12-07T08:31:01;1.80;92.47
70676;DHT22;59069;52.242;20.900;2022-12-07T08:33:27;1.80;92.53
70676;DHT22;59069;52.242;20.900;2022-12-07T08:35:52;1.82;92.58
70676;DHT22;59069;52.242;20.900;2022-12-07T08:38:18;1.87;92.58
70676;DHT22;59069;52.242;20.900;2022-12-07T08:40:43;1.86;92.59
70676;DHT22;59069;52.242;20.900;2022-12-07T08:43:09;1.90;92.69
70676;DHT22;59069;52.242;20.900;2022-12-07T08:45:34;1.95;92.79
70676;DHT22;59069;52.242;20.900;2022-12-07T08:48:10;1.95;92.87
70676;DHT22;59069;52.242;20.900;2022-12-07T08:50:37;2.03;92.97
70676;DHT22;59069;52.242;20.900;2022-12-07T08:53:04;2.07;93.03
70676;DHT22;59069;52.242;20.900;2022-12-07T08:55:30;2.13;93.08
70676;DHT22;59069;52.242;20.900;2022-12-07T08:58:00;2.21;93.05
70676;DHT22;59069;52.242;20.900;2022-12-07T09:00:26;2.29;92.95
70676;DHT22;59069;52.242;20.900;2022-12-07T09:02:51;2.33;92.80
70676;DHT22;59069;52.242;20.900;2022-12-07T09:05:18;2.38;92.62
70676;DHT22;59069;52.242;20.900;2022-12-07T09:07:46;2.43;92.45
70676;DHT22;59069;52.242;20.900;2022-12-07T09:10:14;2.47;92.26
70676;DHT22;59069;52.242;20.900;2022-12-07T09:12:39;2.53;92.14
70676;DHT22;59069;52.242;20.900;2022-12-07T09:15:05;2.55;91.94
70676;DHT22;59069;52.242;20.900;2022-12-07T09:17:34;2.58;91.83
70676;DHT22;59069;52.242;20.900;2022-12-07T09:20:01;2.65;91.75
70676;DHT22;59069;52.242;20.900;2022-12-07T09:22:30;2.71;91.62
70676;DHT22;59069;52.242;20.900;2022-12-07T09:24:57;2.75;91.38
70676;DHT22;59069;52.242;20.900;2022-12-07T09:27:22;2.78;91.20
70676;DHT22;59069;52.242;20.900;2022-12-07T09:29:48;2.82;90.86
70676;DHT22;59069;52.242;20.900;2022-12-07T09:32:13;2.84;90.62
70676;DHT22;59069;52.242;20.900;2022-12-07T09:34:39;2.87;90.40
70676;DHT22;59069;52.242;20.900;2022-12-07T09:37:04;2.91;90.16
70676;DHT22;59069;52.242;20.900;2022-12-07T09:39:30;2.94;90.05
70676;DHT22;59069;52.242;20.900;2022-12-07T09:41:57;2.94;89.86
70676;DHT22;59069;52.242;20.900;2022-12-07T09:44:26;2.96;89.59
70676;DHT22;59069;52.242;20.900;2022-12-07T09:46:53;3.02;89.46
70676;DHT22;59069;52.242;20.900;2022-12-07T09:49:23;3.02;89.33
70676;DHT22;59069;52.242;20.900;2022-12-07T09:52:01;3.03;89.14
70676;DHT22;59069;52.242;20.900;2022-12-07T09:54:28;3.02;88.74
70676;DHT22;59069;52.242;20.900;2022-12-07T09:56:55;3.06;88.56
70676;DHT22;59069;52.242;20.900;2022-12-07T09:59:20;3.09;88.31
70676;DHT22;59069;52.242;20.900;2022-12-07T10:01:49;3.09;87.98
70676;DHT22;59069;52.242;20.900;2022-12-07T10:04:20;3.12;87.98
70676;DHT22;59069;52.242;20.900;2022-12-07T10:06:47;3.12;87.89
70676;DHT22;59069;52.242;20.900;2022-12-07T10:09:15;3.12;87.55
70676;DHT22;59069;52.242;20.900;2022-12-07T10:12:01;3.12;87.32
70676;DHT22;59069;52.242;20.900;2022-12-07T10:14:29;3.13;87.25
70676;DHT22;59069;52.242;20.900;2022-12-07T10:16:56;3.13;87.13
70676;DHT22;59069;52.242;20.900;2022-12-07T10:19:32;3.15;86.95
70676;DHT22;59069;52.242;20.900;2022-12-07T10:22:16;3.12;86.78
70676;DHT22;59069;52.242;20.900;2022-12-07T10:24:43;3.13;86.75
70676;DHT22;59069;52.242;20.900;2022-12-07T10:27:31;3.15;86.48
70676;DHT22;59069;52.242;20.900;2022-12-07T10:29:57;3.13;86.36
70676;DHT22;59069;52.242;20.900;2022-12-07T10:32:35;3.13;86.43
70676;DHT22;59069;52.242;20.900;2022-12-07T10:35:23;3.18;86.59
70676;DHT22;59069;52.242;20.900;2022-12-07T10:37:51;3.19;86.46
70676;DHT22;59069;52.242;20.900;2022-12-07T10:43:20;3.27;86.32
70676;DHT22;59069;52.242;20.900;2022-12-07T10:46:02;3.25;86.20
70676;DHT22;59069;52.242;20.900;2022-12-07T10:51:58;3.30;85.99
70676;DHT22;59069;52.242;20.900;2022-12-07T11:00:09;3.36;85.87
70676;DHT22;59069;52.242;20.900;2022-12-07T11:14:03;3.42;85.30
70676;DHT22;59069;52.242;20.900;2022-12-07T11:21:59;3.44;84.98
70676;DHT22;59069;52.242;20.900;2022-12-07T11:24:44;3.42;85.02
70676;DHT22;59069;52.242;20.900;2022-12-07T11:27:43;3.39;85.07
70676;DHT22;59069;52.242;20.900;2022-12-07T11:30:42;3.43;85.08
70676;DHT22;59069;52.242;20.900;2022-12-07T11:38:17;3.52;85.30
70676;DHT22;59069;52.242;20.900;2022-12-07T11:40:46;3.56;85.15
70676;DHT22;59069;52.242;20.900;2022-12-07T11:43:16;3.59;85.28
70676;DHT22;59069;52.242;20.900;2022-12-07T11:45:45;3.64;85.25
70676;DHT22;59069;52.242;20.900;2022-12-07T11:48:35;3.67;85.17
70676;DHT22;59069;52.242;20.900;2022-12-07T11:51:07;3.71;85.00
70676;DHT22;59069;52.242;20.900;2022-12-07T11:53:40;3.77;84.79
70676;DHT22;59069;52.242;20.900;2022-12-07T11:56:13;3.77;84.65
70676;DHT22;59069;52.242;20.900;2022-12-07T12:07:23;3.71;83.58
70676;DHT22;59069;52.242;20.900;2022-12-07T12:10:06;3.67;83.61
70676;DHT22;59069;52.242;20.900;2022-12-07T12:12:54;3.59;83.67
70676;DHT22;59069;52.242;20.900;2022-12-07T12:21:02;3.37;84.79
70676;DHT22;59069;52.242;20.900;2022-12-07T12:23:48;3.30;85.10
70676;DHT22;59069;52.242;20.900;2022-12-07T12:26:23;3.32;85.45
70676;DHT22;59069;52.242;20.900;2022-12-07T12:28:52;3.32;85.71
70676;DHT22;59069;52.242;20.900;2022-12-07T12:33:50;3.36;86.23
70676;DHT22;59069;52.242;20.900;2022-12-07T12:46:56;3.43;85.83
70676;DHT22;59069;52.242;20.900;2022-12-07T12:56:44;3.37;85.79
70676;DHT22;59069;52.242;20.900;2022-12-07T12:59:36;3.33;85.86
70676;DHT22;59069;52.242;20.900;2022-12-07T13:02:21;3.33;85.87
70676;DHT22;59069;52.242;20.900;2022-12-07T13:13:28;3.26;85.06
70676;DHT22;59069;52.242;20.900;2022-12-07T13:18:41;3.19;84.43
70676;DHT22;59069;52.242;20.900;2022-12-07T13:26:42;3.08;84.43
70676;DHT22;59069;52.242;20.900;2022-12-07T13:29:13;3.09;84.55
70676;DHT22;59069;52.242;20.900;2022-12-07T13:32:21;3.08;84.70
70676;DHT22;59069;52.242;20.900;2022-12-07T13:34:48;3.08;84.85
70676;DHT22;59069;52.242;20.900;2022-12-07T13:37:27;3.06;84.90
70676;DHT22;59069;52.242;20.900;2022-12-07T13:39:58;3.06;85.00
70676;DHT22;59069;52.242;20.900;2022-12-07T13:42:28;3.08;85.14
70676;DHT22;59069;52.242;20.900;2022-12-07T13:44:55;3.06;85.26
70676;DHT22;59069;52.242;20.900;2022-12-07T13:49:58;3.06;85.56
70676;DHT22;59069;52.242;20.900;2022-12-07T13:55:16;3.06;85.82
70676;DHT22;59069;52.242;20.900;2022-12-07T13:57:50;3.05;85.81
70676;DHT22;59069;52.242;20.900;2022-12-07T14:00:19;3.08;85.86
70676;DHT22;59069;52.242;20.900;2022-12-07T14:03:01;3.05;86.01
70676;DHT22;59069;52.242;20.900;2022-12-07T14:05:27;3.02;86.02
70676;DHT22;59069;52.242;20.900;2022-12-07T14:08:02;2.99;85.95
70676;DHT22;59069;52.242;20.900;2022-12-07T14:10:30;2.95;85.98
70676;DHT22;59069;52.242;20.900;2022-12-07T14:12:57;2.94;85.98
70676;DHT22;59069;52.242;20.900;2022-12-07T14:15:33;2.88;86.04
70676;DHT22;59069;52.242;20.900;2022-12-07T14:18:00;2.84;86.13
70676;DHT22;59069;52.242;20.900;2022-12-07T14:22:55;2.80;86.19
70676;DHT22;59069;52.242;20.900;2022-12-07T14:25:25;2.75;86.34
70676;DHT22;59069;52.242;20.900;2022-12-07T14:28:00;2.72;86.34
70676;DHT22;59069;52.242;20.900;2022-12-07T14:30:28;2.71;86.40
70676;DHT22;59069;52.242;20.900;2022-12-07T14:32:58;2.66;86.53
70676;DHT22;59069;52.242;20.900;2022-12-07T14:35:24;2.66;86.52
70676;DHT22;59069;52.242;20.900;2022-12-07T14:37:50;2.64;86.53
70676;DHT22;59069;52.242;20.900;2022-12-07T14:40:25;2.61;86.46
70676;DHT22;59069;52.242;20.900;2022-12-07T14:43:21;2.53;86.55
70676;DHT22;59069;52.242;20.900;2022-12-07T14:45:47;2.51;86.59
70676;DHT22;59069;52.242;20.900;2022-12-07T14:48:14;2.43;86.69
70676;DHT22;59069;52.242;20.900;2022-12-07T14:50:46;2.38;86.83
70676;DHT22;59069;52.242;20.900;2022-12-07T14:53:15;2.36;86.89
70676;DHT22;59069;52.242;20.900;2022-12-07T14:55:41;2.33;87.08
70676;DHT22;59069;52.242;20.900;2022-12-07T14:58:13;2.30;87.16
70676;DHT22;59069;52.242;20.900;2022-12-07T15:00:39;2.27;87.25
70676;DHT22;59069;52.242;20.900;2022-12-07T15:03:04;2.29;87.41
70676;DHT22;59069;52.242;20.900;2022-12-07T15:05:30;2.27;87.39
70676;DHT22;59069;52.242;20.900;2022-12-07T15:07:55;2.27;87.46
70676;DHT22;59069;52.242;20.900;2022-12-07T15:10:26;2.23;87.42
70676;DHT22;59069;52.242;20.900;2022-12-07T15:12:57;2.19;87.62
70676;DHT22;59069;52.242;20.900;2022-12-07T15:15:41;2.16;87.84
70676;DHT22;59069;52.242;20.900;2022-12-07T15:18:07;2.17;87.91
70676;DHT22;59069;52.242;20.900;2022-12-07T15:20:33;2.16;87.94
70676;DHT22;59069;52.242;20.900;2022-12-07T15:22:58;2.16;88.15
70676;DHT22;59069;52.242;20.900;2022-12-07T15:25:24;2.16;88.25
70676;DHT22;59069;52.242;20.900;2022-12-07T15:27:49;2.17;88.33
70676;DHT22;59069;52.242;20.900;2022-12-07T15:30:15;2.20;88.37
70676;DHT22;59069;52.242;20.900;2022-12-07T15:32:40;2.21;88.41
70676;DHT22;59069;52.242;20.900;2022-12-07T15:35:06;2.26;88.33
70676;DHT22;59069;52.242;20.900;2022-12-07T15:37:32;2.29;88.29
70676;DHT22;59069;52.242;20.900;2022-12-07T15:39:58;2.27;88.20
70676;DHT22;59069;52.242;20.900;2022-12-07T15:42:23;2.26;88.26
70676;DHT22;59069;52.242;20.900;2022-12-07T15:44:48;2.29;88.28
70676;DHT22;59069;52.242;20.900;2022-12-07T15:47:37;2.26;88.35
70676;DHT22;59069;52.242;20.900;2022-12-07T15:50:05;2.29;88.47
70676;DHT22;59069;52.242;20.900;2022-12-07T15:52:31;2.27;88.51
70676;DHT22;59069;52.242;20.900;2022-12-07T15:54:57;2.30;88.52
70676;DHT22;59069;52.242;20.900;2022-12-07T15:57:22;2.29;88.57
70676;DHT22;59069;52.242;20.900;2022-12-07T15:59:48;2.29;88.58
70676;DHT22;59069;52.242;20.900;2022-12-07T16:02:13;2.33;88.71
70676;DHT22;59069;52.242;20.900;2022-12-07T16:04:39;2.34;88.72
70676;DHT22;59069;52.242;20.900;2022-12-07T16:07:05;2.43;88.78
70676;DHT22;59069;52.242;20.900;2022-12-07T16:09:30;2.44;88.75
70676;DHT22;59069;52.242;20.900;2022-12-07T16:11:56;2.44;88.63
70676;DHT22;59069;52.242;20.900;2022-12-07T16:14:21;2.44;88.55
70676;DHT22;59069;52.242;20.900;2022-12-07T16:16:47;2.50;88.55
70676;DHT22;59069;52.242;20.900;2022-12-07T16:19:13;2.53;88.47
70676;DHT22;59069;52.242;20.900;2022-12-07T16:21:39;2.54;88.34
70676;DHT22;59069;52.242;20.900;2022-12-07T16:24:05;2.53;88.19
70676;DHT22;59069;52.242;20.900;2022-12-07T16:26:30;2.53;88.19
70676;DHT22;59069;52.242;20.900;2022-12-07T16:28:56;2.51;88.19
70676;DHT22;59069;52.242;20.900;2022-12-07T16:31:24;2.53;88.31
70676;DHT22;59069;52.242;20.900;2022-12-07T16:33:52;2.55;88.33
70676;DHT22;59069;52.242;20.900;2022-12-07T16:36:18;2.57;88.38
70676;DHT22;59069;52.242;20.900;2022-12-07T16:38:43;2.58;88.34
70676;DHT22;59069;52.242;20.900;2022-12-07T16:41:09;2.62;88.28
70676;DHT22;59069;52.242;20.900;2022-12-07T16:43:35;2.60;88.16
70676;DHT22;59069;52.242;20.900;2022-12-07T16:46:01;2.64;88.06
70676;DHT22;59069;52.242;20.900;2022-12-07T16:48:27;2.62;87.91
70676;DHT22;59069;52.242;20.900;2022-12-07T16:50:53;2.64;87.98
70676;DHT22;59069;52.242;20.900;2022-12-07T16:53:19;2.61;87.97
70676;DHT22;59069;52.242;20.900;2022-12-07T16:55:45;2.65;87.93
70676;DHT22;59069;52.242;20.900;2022-12-07T16:58:12;2.64;87.84
70676;DHT22;59069;52.242;20.900;2022-12-07T17:00:39;2.68;87.86
70676;DHT22;59069;52.242;20.900;2022-12-07T17:03:05;2.66;87.87
70676;DHT22;59069;52.242;20.900;2022-12-07T17:05:30;2.70;87.82
70676;DHT22;59069;52.242;20.900;2022-12-07T17:07:56;2.71;87.77
70676;DHT22;59069;52.242;20.900;2022-12-07T17:10:23;2.71;87.64
70676;DHT22;59069;52.242;20.900;2022-12-07T17:12:49;2.68;87.59
70676;DHT22;59069;52.242;20.900;2022-12-07T17:15:15;2.74;87.46
70676;DHT22;59069;52.242;20.900;2022-12-07T17:17:56;2.74;87.44
70676;DHT22;59069;52.242;20.900;2022-12-07T17:20:23;2.71;87.29
70676;DHT22;59069;52.242;20.900;2022-12-07T17:22:49;2.70;87.13
70676;DHT22;59069;52.242;20.900;2022-12-07T17:25:15;2.70;86.98
70676;DHT22;59069;52.242;20.900;2022-12-07T17:27:41;2.71;86.95
70676;DHT22;59069;52.242;20.900;2022-12-07T17:30:07;2.68;87.06
70676;DHT22;59069;52.242;20.900;2022-12-07T17:32:33;2.70;87.11
70676;DHT22;59069;52.242;20.900;2022-12-07T17:34:58;2.74;87.06
70676;DHT22;59069;52.242;20.900;2022-12-07T17:37:25;2.74;87.07
70676;DHT22;59069;52.242;20.900;2022-12-07T17:39:52;2.75;86.97
70676;DHT22;59069;52.242;20.900;2022-12-07T17:42:18;2.78;86.82
70676;DHT22;59069;52.242;20.900;2022-12-07T17:45:03;2.84;86.70
70676;DHT22;59069;52.242;20.900;2022-12-07T17:47:29;2.84;86.48
70676;DHT22;59069;52.242;20.900;2022-12-07T17:49:55;2.78;86.27
70676;DHT22;59069;52.242;20.900;2022-12-07T17:52:20;2.80;86.13
70676;DHT22;59069;52.242;20.900;2022-12-07T17:55:05;2.75;86.16